Aérodrome :







RETROUVEZ-NOUS SUR...

 
LOGIN :

S'inscrire | Disclaimer

   EN    FR    IT 

 









Légende :    VFR   VFR Marginal   IFR   IFR Intensif   IFR Très Intensif
Visi : 
Plafond : 
>= 8 km
>= 3000ft
5 à 8 km
1000 à 3000 ft
1500m à 5 km
500 à 1000 ft
800 à 1500m
200 à 500 ft
< 800m
< 200 ft
Symboles :   Orages  Brouillard  Fortes neiges  Fortes précipitations  Vent > 20 kt






- Altitude de l'aérodrome : 496 ft
- Code IATA : YQX


CYQX - Gander

DERNIER METAR :
  • 110500Z 22015G21KT 12SM -SHRA BKN008 BKN016 OVC035 10/09 A2959 RMK SF5SC2SC1 CVCTV CLD EMBD PRESRR SLP024

METARs EXPIRÉS :
  • 110400Z 22019G26KT 6SM -SHRA BR OVC007 10/09 A2959 RMK SF8 CVCTV CLD EMBD SLP024
  • 110300Z 22016G24KT 8SM -SHRA OVC007 10/09 A2960 RMK ST8 CVCTV CLD EMBD SLP029

TAF AMD TAF CYQX
Valide du 11 à 03h jusqu'au 12 à 00h UTC


110316Z 1103/1124 23017G27KT 5SM -RA -DZ BR OVC008
TEMPO 1103/1112 P6SM NSW OVC015
FM111200 26017G27KT P6SM SCT015 OVC050
TEMPO 1112/1118 OVC015
FM111800 28015G25KT 5SM -SN BKN020 OVC080
PROB30 1118/1124 1SM -SHSN RMK NXT FCST BY 110600Z



MET'MAP, la Météo Aéronautique d'un coup d'oeil ! - Copyright ORBIFLY Décembre 2007 - Disclaimer

ORBIFLY MET'MAP TEAM :

Programmation & Développement : Alexandra Zaïnal
Sur une idée originale de : Baudouin d'Aumeries
Assistance à la programmation : Marc-Olivier Méhu
Soutien technique & logistique : Manuel Goepfert

Contact : metmap@orbifly.com




SOURCES & CREDITS :

   NOAA